Time;durP1;ratioP1;P1;durP2;ratioP2;P2;SDS_P1;SDS_P2;PMS_P1;PMS_P2;Temp;Humidity;BMP_temperature;BMP_pressure;BME280_temperature;BME280_humidity;BME280_pressure;Samples;Min_cycle;Max_cycle;Signal;HPM_P1;HPM_P2
2023/07/30 00:00:54;;;;;;;4.12;3.50;;;;;;;31.55;nan;100913.03;143724;624;48000;-70
2023/07/30 00:03:23;;;;;;;5.43;3.08;;;;;;;31.61;nan;100919.19;143728;585;46009;-71
2023/07/30 00:05:58;;;;;;;3.40;3.10;;;;;;;31.60;nan;100921.16;143726;592;47002;-70
2023/07/30 00:08:28;;;;;;;6.87;3.33;;;;;;;31.56;nan;100919.38;143727;602;46006;-70
2023/07/30 00:10:58;;;;;;;3.92;3.12;;;;;;;31.51;nan;100922.34;143728;648;47000;-71
2023/07/30 00:13:28;;;;;;;6.25;3.78;;;;;;;31.51;nan;100923.19;143727;584;46026;-70
2023/07/30 00:15:54;;;;;;;8.63;3.25;;;;;;;31.51;nan;100925.13;143726;583;46928;-70
2023/07/30 00:18:21;;;;;;;5.03;3.28;;;;;;;31.49;nan;100928.25;143727;658;46019;-69
2023/07/30 00:20:47;;;;;;;8.98;3.50;;;;;;;31.45;nan;100927.28;143727;583;47004;-70
2023/07/30 00:23:13;;;;;;;6.43;3.40;;;;;;;31.45;nan;100933.69;143728;643;46009;-69
2023/07/30 00:25:40;;;;;;;3.42;2.90;;;;;;;31.39;nan;100926.69;143725;583;47002;-70
2023/07/30 00:28:06;;;;;;;4.70;3.12;;;;;;;31.45;nan;100918.97;143728;576;46006;-70
2023/07/30 00:30:32;;;;;;;7.30;3.83;;;;;;;31.42;nan;100926.00;143724;581;47003;-69
2023/07/30 00:32:59;;;;;;;4.55;3.25;;;;;;;31.44;nan;100920.94;143726;704;46011;-69
2023/07/30 00:35:25;;;;;;;4.95;2.78;;;;;;;31.41;nan;100927.16;143724;586;47004;-70
2023/07/30 00:37:51;;;;;;;6.18;3.03;;;;;;;31.34;nan;100929.66;143727;590;46006;-69
2023/07/30 00:40:18;;;;;;;3.08;2.78;;;;;;;31.29;nan;100933.44;143728;626;46019;-70
2023/07/30 00:42:44;;;;;;;4.00;3.60;;;;;;;31.23;nan;100926.47;143727;579;46010;-69
2023/07/30 00:45:11;;;;;;;5.30;3.28;;;;;;;31.19;nan;100931.06;143727;567;47004;-69
2023/07/30 00:47:41;;;;;;;6.62;3.60;;;;;;;31.18;nan;100926.66;143726;591;46008;-71
2023/07/30 00:50:11;;;;;;;3.83;3.40;;;;;;;31.17;nan;100922.25;143730;574;46008;-70
2023/07/30 00:52:37;;;;;;;4.55;3.67;;;;;;;31.17;nan;100930.56;143724;581;47926;-69
2023/07/30 00:55:04;;;;;;;6.03;3.17;;;;;;;31.11;nan;100927.16;143726;569;46014;-70
2023/07/30 00:57:32;;;;;;;8.40;4.60;;;;;;;31.12;nan;100925.16;143728;659;46010;-69
2023/07/30 00:59:59;;;;;;;4.87;3.28;;;;;;;31.12;nan;100922.41;143726;605;47004;-70
2023/07/30 01:02:26;;;;;;;5.50;3.25;;;;;;;31.10;nan;100921.91;143725;577;47013;-68
2023/07/30 01:04:52;;;;;;;5.12;3.25;;;;;;;31.07;nan;100926.19;143725;655;47004;-69
2023/07/30 01:07:19;;;;;;;5.12;3.30;;;;;;;31.07;nan;100917.84;143729;596;46008;-69
2023/07/30 01:09:45;;;;;;;6.32;3.30;;;;;;;31.05;nan;100917.38;143729;568;47002;-69
2023/07/30 01:12:13;;;;;;;7.18;3.20;;;;;;;31.05;nan;100917.38;143726;587;46926;-70
2023/07/30 01:14:40;;;;;;;4.87;2.95;;;;;;;31.07;nan;100917.84;143726;638;46006;-69
2023/07/30 01:17:06;;;;;;;5.35;3.15;;;;;;;31.10;nan;100922.75;143729;600;46008;-70
2023/07/30 01:19:33;;;;;;;3.42;2.85;;;;;;;31.06;nan;100918.22;143727;573;47002;-69
2023/07/30 01:21:59;;;;;;;4.97;3.05;;;;;;;31.06;nan;100913.47;143727;579;46012;-69
2023/07/30 01:24:25;;;;;;;4.07;3.62;;;;;;;31.03;nan;100911.34;143727;649;46006;-69
2023/07/30 01:26:59;;;;;;;3.78;2.83;;;;;;;30.98;nan;100919.84;143729;587;46008;-69
2023/07/30 01:29:58;;;;;;;5.35;3.15;;;;;;;31.00;nan;100921.16;143728;636;47002;-69
2023/07/30 01:32:28;;;;;;;6.18;3.50;;;;;;;30.94;nan;100919.72;143725;589;47013;-69
2023/07/30 01:34:57;;;;;;;6.65;3.20;;;;;;;30.87;nan;100924.16;143725;613;47006;-69
2023/07/30 01:37:25;;;;;;;5.20;2.83;;;;;;;30.83;nan;100927.56;143729;649;46008;-69
2023/07/30 01:39:52;;;;;;;5.57;3.00;;;;;;;30.80;nan;100917.12;143727;569;47002;-70
2023/07/30 01:42:18;;;;;;;8.57;3.95;;;;;;;30.82;nan;100917.63;143727;619;46027;-69
2023/07/30 01:44:45;;;;;;;5.45;2.83;;;;;;;30.77;nan;100922.53;143724;576;47006;-68
2023/07/30 01:47:11;;;;;;;5.15;2.92;;;;;;;30.80;nan;100927.44;143726;664;46924;-70
2023/07/30 01:49:37;;;;;;;3.30;3.00;;;;;;;30.81;nan;100929.88;143726;576;47002;-69
2023/07/30 01:52:04;;;;;;;4.20;2.70;;;;;;;30.82;nan;100933.47;143728;665;46010;-69
2023/07/30 01:54:31;;;;;;;6.12;3.60;;;;;;;30.85;nan;100932.81;143728;576;46006;-68
2023/07/30 01:56:57;;;;;;;5.03;3.08;;;;;;;30.89;nan;100932.94;143724;568;48010;-69
2023/07/30 01:59:24;;;;;;;5.55;2.97;;;;;;;30.95;nan;100932.44;143727;573;47002;-69
2023/07/30 02:01:50;;;;;;;3.55;2.83;;;;;;;30.91;nan;100933.44;143727;652;46013;-70
2023/07/30 02:04:17;;;;;;;3.60;3.03;;;;;;;30.88;nan;100934.09;143727;636;47004;-69
2023/07/30 02:06:44;;;;;;;6.40;3.25;;;;;;;30.85;nan;100930.03;143727;585;46008;-69
2023/07/30 02:09:11;;;;;;;5.40;2.70;;;;;;;30.81;nan;100932.63;143724;567;47004;-70
2023/07/30 02:11:37;;;;;;;6.62;3.25;;;;;;;30.75;nan;100925.66;143726;588;46925;-69
2023/07/30 02:14:03;;;;;;;5.90;2.83;;;;;;;30.73;nan;100922.41;143724;623;47004;-68
2023/07/30 02:16:29;;;;;;;5.03;3.25;;;;;;;30.70;nan;100926.66;143728;592;46008;-69
2023/07/30 02:18:56;;;;;;;4.57;2.97;;;;;;;30.71;nan;100924.69;143725;592;47004;-70
2023/07/30 02:21:22;;;;;;;4.22;2.97;;;;;;;30.72;nan;100929.09;143727;572;46012;-69
2023/07/30 02:23:48;;;;;;;4.47;2.87;;;;;;;30.73;nan;100929.91;143724;595;47006;-69
2023/07/30 02:26:28;;;;;;;3.87;3.03;;;;;;;30.69;nan;100927.81;143727;639;46008;-69
2023/07/30 02:28:54;;;;;;;3.35;2.58;;;;;;;30.70;nan;100925.84;143729;584;46008;-71
2023/07/30 02:31:32;;;;;;;3.70;2.97;;;;;;;30.67;nan;100916.22;143727;589;46013;-70
2023/07/30 02:34:10;;;;;;;4.30;3.22;;;;;;;30.67;nan;100926.50;143725;572;47004;-70
2023/07/30 02:36:39;;;;;;;4.12;3.47;;;;;;;30.63;nan;100928.28;143728;618;46023;-70
2023/07/30 02:39:08;;;;;;;5.35;3.72;;;;;;;30.65;nan;100926.00;143731;578;46008;-69
2023/07/30 02:41:34;;;;;;;5.57;3.20;;;;;;;30.68;nan;100936.44;143727;583;46012;-70
2023/07/30 02:44:01;;;;;;;4.12;2.95;;;;;;;30.65;nan;100937.09;143725;567;47004;-69
2023/07/30 02:46:28;;;;;;;4.07;2.75;;;;;;;30.63;nan;100942.97;143728;588;46008;-69
2023/07/30 02:48:55;;;;;;;5.80;3.25;;;;;;;30.54;nan;100933.81;143725;590;47006;-69
2023/07/30 02:51:21;;;;;;;6.37;3.55;;;;;;;30.52;nan;100933.38;143726;675;46012;-69
2023/07/30 02:53:51;;;;;;;4.40;3.05;;;;;;;30.46;nan;100934.69;143724;577;47004;-69
2023/07/30 02:56:18;;;;;;;5.97;2.95;;;;;;;30.51;nan;100935.31;143729;629;46008;-69
2023/07/30 02:58:44;;;;;;;4.85;2.90;;;;;;;30.51;nan;100934.50;143729;572;46008;-68
2023/07/30 03:01:10;;;;;;;5.65;3.05;;;;;;;30.51;nan;100948.38;143727;594;46011;-69
2023/07/30 03:03:37;;;;;;;4.15;3.53;;;;;;;30.49;nan;100942.34;143724;576;47004;-68
2023/07/30 03:06:03;;;;;;;7.03;3.17;;;;;;;30.45;nan;100944.94;143727;580;47008;-69
2023/07/30 03:08:29;;;;;;;7.80;3.28;;;;;;;30.46;nan;100943.00;143727;575;47006;-68
2023/07/30 03:10:59;;;;;;;4.68;4.18;;;;;;;30.49;nan;100950.66;143727;656;46012;-70
2023/07/30 03:13:26;;;;;;;5.45;2.72;;;;;;;30.51;nan;100946.41;143725;572;47004;-69
2023/07/30 03:15:52;;;;;;;4.37;2.70;;;;;;;30.52;nan;100948.03;143727;612;46925;-69
2023/07/30 03:18:19;;;;;;;4.82;3.10;;;;;;;30.53;nan;100946.88;143728;569;47002;-68
2023/07/30 03:20:45;;;;;;;3.67;2.90;;;;;;;30.55;nan;100946.56;143727;603;46012;-69
2023/07/30 03:23:11;;;;;;;2.45;2.25;;;;;;;30.56;nan;100948.22;143724;651;47005;-69
2023/07/30 03:25:38;;;;;;;5.57;2.85;;;;;;;30.57;nan;100954.56;143728;680;46008;-68
2023/07/30 03:28:04;;;;;;;5.85;2.90;;;;;;;30.58;nan;100957.00;143727;669;47002;-69
2023/07/30 03:30:31;;;;;;;8.30;2.85;;;;;;;30.58;nan;100948.69;143724;621;47012;-69
2023/07/30 03:32:57;;;;;;;6.57;3.22;;;;;;;30.53;nan;100948.84;143726;572;47006;-69
2023/07/30 03:35:23;;;;;;;7.05;3.10;;;;;;;30.56;nan;100950.97;143727;585;46008;-68
2023/07/30 03:37:49;;;;;;;6.60;2.97;;;;;;;30.55;nan;100952.13;143727;610;47006;-69
2023/07/30 03:40:16;;;;;;;9.38;3.05;;;;;;;30.54;nan;100956.00;143727;676;46012;-68
2023/07/30 03:42:43;;;;;;;4.53;2.97;;;;;;;30.58;nan;100959.78;143725;569;47004;-70
2023/07/30 03:45:09;;;;;;;7.47;3.70;;;;;;;30.49;nan;100959.75;143724;570;50004;-69
2023/07/30 03:47:36;;;;;;;5.07;3.60;;;;;;;30.44;nan;100959.13;143727;638;47004;-69
2023/07/30 03:50:02;;;;;;;7.85;3.42;;;;;;;30.47;nan;100964.03;143726;590;46926;-69
2023/07/30 03:52:28;;;;;;;10.25;3.47;;;;;;;30.53;nan;100963.50;143726;580;47006;-69
2023/07/30 03:54:55;;;;;;;7.20;3.20;;;;;;;30.57;nan;100966.47;143727;574;46008;-68
2023/07/30 03:57:21;;;;;;;5.43;3.60;;;;;;;30.58;nan;100968.09;143730;595;47002;-69
2023/07/30 03:59:47;;;;;;;6.03;3.55;;;;;;;30.53;nan;100968.25;143726;568;46012;-69
2023/07/30 04:02:15;;;;;;;7.65;3.60;;;;;;;30.54;nan;100972.63;143726;569;46017;-69
2023/07/30 04:04:48;;;;;;;9.45;3.72;;;;;;;30.48;nan;100982.28;143729;579;46008;-69
2023/07/30 04:07:14;;;;;;;7.20;3.42;;;;;;;30.46;nan;100976.25;143728;664;46012;-68
2023/07/30 04:09:40;;;;;;;4.50;3.45;;;;;;;30.45;nan;100982.94;143726;637;46010;-69
2023/07/30 04:12:07;;;;;;;8.35;3.25;;;;;;;30.48;nan;100988.63;143725;568;47928;-68
2023/07/30 04:14:33;;;;;;;5.65;3.40;;;;;;;30.46;nan;100988.12;143728;618;46926;-69
2023/07/30 04:17:00;;;;;;;8.57;4.22;;;;;;;30.44;nan;100984.06;143728;634;47000;-68
2023/07/30 04:19:26;;;;;;;8.52;3.70;;;;;;;30.45;nan;100986.50;143724;575;47008;-69
2023/07/30 04:21:53;;;;;;;7.85;3.97;;;;;;;30.48;nan;100985.84;143727;581;46013;-69
2023/07/30 04:24:19;;;;;;;12.18;3.65;;;;;;;30.57;nan;100972.00;143725;620;46006;-69
2023/07/30 04:26:45;;;;;;;10.82;3.47;;;;;;;30.55;nan;100986.22;143723;640;47002;-69
2023/07/30 04:29:13;;;;;;;5.50;3.50;;;;;;;30.56;nan;100975.94;143724;605;47010;-69
2023/07/30 04:31:40;;;;;;;8.23;4.15;;;;;;;30.60;nan;100984.41;143724;595;47002;-69
2023/07/30 04:34:06;;;;;;;7.53;3.62;;;;;;;30.66;nan;100978.38;143727;625;46002;-69
2023/07/30 04:36:33;;;;;;;8.27;4.05;;;;;;;30.75;nan;100980.28;143727;579;47000;-69
2023/07/30 04:38:59;;;;;;;7.37;3.90;;;;;;;30.84;nan;100976.34;143726;586;46010;-69
2023/07/30 04:41:25;;;;;;;14.02;3.85;;;;;;;30.85;nan;100979.94;143722;587;47004;-69
2023/07/30 04:43:52;;;;;;;6.37;3.70;;;;;;;30.85;nan;100974.41;143727;577;46007;-69
2023/07/30 04:46:18;;;;;;;11.27;3.22;;;;;;;30.91;nan;100977.81;143725;608;47002;-69
2023/07/30 04:48:44;;;;;;;6.30;3.10;;;;;;;30.94;nan;100971.59;143726;657;46008;-69
2023/07/30 04:51:11;;;;;;;5.35;3.60;;;;;;;30.96;nan;100974.88;143727;630;46008;-69
2023/07/30 04:53:37;;;;;;;12.13;3.92;;;;;;;31.02;nan;100975.50;143725;569;47006;-69
2023/07/30 04:56:04;;;;;;;6.93;3.12;;;;;;;31.03;nan;100980.69;143724;589;47002;-69
2023/07/30 04:58:30;;;;;;;7.25;3.55;;;;;;;31.06;nan;100977.25;143726;606;46009;-69
2023/07/30 05:00:56;;;;;;;6.80;3.70;;;;;;;31.08;nan;100977.75;143727;640;46008;-69
2023/07/30 05:03:23;;;;;;;6.60;3.80;;;;;;;31.12;nan;100983.44;143725;610;46006;-69
2023/07/30 05:05:49;;;;;;;6.18;3.72;;;;;;;31.18;nan;100989.63;143726;651;47004;-69
2023/07/30 05:08:15;;;;;;;6.60;3.50;;;;;;;31.22;nan;100998.94;143724;567;46011;-69
2023/07/30 05:10:42;;;;;;;6.15;3.60;;;;;;;31.29;nan;100988.94;143723;604;47004;-69
2023/07/30 05:13:09;;;;;;;7.05;3.45;;;;;;;31.38;nan;100997.22;143729;576;46007;-69
2023/07/30 05:15:35;;;;;;;3.40;2.90;;;;;;;31.47;nan;100993.59;143728;567;46006;-69
2023/07/30 05:18:01;;;;;;;6.28;3.08;;;;;;;31.52;nan;100998.94;143724;577;47010;-70
2023/07/30 05:20:27;;;;;;;4.70;3.12;;;;;;;31.57;nan;101007.06;143725;634;46004;-70
2023/07/30 05:22:54;;;;;;;7.22;3.53;;;;;;;31.63;nan;101005.75;143724;573;46006;-69
2023/07/30 05:25:20;;;;;;;7.53;3.22;;;;;;;31.71;nan;101012.44;143720;625;48006;-69
2023/07/30 05:27:46;;;;;;;7.18;3.22;;;;;;;31.79;nan;101019.06;143725;603;46010;-69
2023/07/30 05:30:13;;;;;;;6.62;2.95;;;;;;;31.84;nan;101022.47;143723;612;47002;-69
2023/07/30 05:32:39;;;;;;;4.90;3.37;;;;;;;31.87;nan;101021.78;143725;572;46004;-69
2023/07/30 05:35:06;;;;;;;6.60;3.05;;;;;;;31.92;nan;101029.09;143724;640;47000;-70
2023/07/30 05:37:32;;;;;;;4.93;3.20;;;;;;;31.95;nan;101027.63;143724;592;46011;-69
2023/07/30 05:39:59;;;;;;;4.37;2.97;;;;;;;31.97;nan;101031.69;143723;572;47002;-70
2023/07/30 05:42:25;;;;;;;5.97;3.12;;;;;;;32.06;nan;101032.44;143727;612;46006;-70
2023/07/30 05:44:51;;;;;;;5.25;3.42;;;;;;;32.12;nan;101035.84;143727;621;47000;-69
2023/07/30 05:47:17;;;;;;;4.53;3.35;;;;;;;32.16;nan;101039.56;143726;597;46008;-69
2023/07/30 05:49:43;;;;;;;9.20;3.62;;;;;;;32.20;nan;101034.94;143726;572;46011;-69
2023/07/30 05:52:10;;;;;;;4.43;3.40;;;;;;;32.24;nan;101040.63;143727;618;46006;-70
2023/07/30 05:54:36;;;;;;;5.53;3.03;;;;;;;32.15;nan;101040.69;143724;581;47000;-69
2023/07/30 05:57:02;;;;;;;4.93;3.70;;;;;;;32.14;nan;101043.84;143723;624;47002;-69
2023/07/30 05:59:28;;;;;;;9.07;3.80;;;;;;;32.29;nan;101045.22;143725;630;47002;-69
2023/07/30 06:01:57;;;;;;;5.55;3.70;;;;;;;32.38;nan;101045.16;143726;584;46006;-69
2023/07/30 06:04:24;;;;;;;5.53;3.50;;;;;;;32.43;nan;101042.97;143726;584;47004;-69
2023/07/30 06:06:50;;;;;;;6.07;4.07;;;;;;;32.55;nan;101036.66;143724;764;47002;-69
2023/07/30 06:09:17;;;;;;;7.12;3.75;;;;;;;32.61;nan;101046.41;143722;634;47002;-69
2023/07/30 06:11:43;;;;;;;8.18;4.60;;;;;;;32.61;nan;101038.06;143724;599;46006;-69
2023/07/30 06:14:09;;;;;;;6.57;4.22;;;;;;;32.64;nan;101042.94;143724;631;47000;-69
2023/07/30 06:16:36;;;;;;;7.32;4.40;;;;;;;32.65;nan;101046.53;143725;711;46010;-69
2023/07/30 06:19:02;;;;;;;5.70;4.22;;;;;;;32.70;nan;101042.72;143723;697;48002;-69
2023/07/30 06:21:28;;;;;;;6.80;4.32;;;;;;;32.81;nan;101043.91;143727;596;46006;-69
2023/07/30 06:23:55;;;;;;;9.20;4.70;;;;;;;32.74;nan;101044.47;143728;621;47000;-69
2023/07/30 06:26:21;;;;;;;6.70;4.85;;;;;;;32.79;nan;101038.72;143724;591;47010;-69
2023/07/30 06:28:47;;;;;;;7.30;4.28;;;;;;;32.76;nan;101039.38;143725;591;46004;-69
2023/07/30 06:31:14;;;;;;;6.82;5.07;;;;;;;32.90;nan;101041.06;143728;607;46002;-69
2023/07/30 06:33:40;;;;;;;8.80;4.47;;;;;;;33.00;nan;101035.09;143723;586;48000;-69
2023/07/30 06:36:06;;;;;;;6.40;4.93;;;;;;;33.12;nan;101034.25;143727;614;46008;-70
2023/07/30 06:38:33;;;;;;;11.10;5.15;;;;;;;33.20;nan;101025.00;143723;627;47002;-69
2023/07/30 06:40:59;;;;;;;9.35;5.80;;;;;;;33.16;nan;101021.28;143727;628;46006;-69
2023/07/30 06:43:25;;;;;;;7.90;5.50;;;;;;;33.16;nan;101020.50;143723;608;47000;-69
2023/07/30 06:45:53;;;;;;;14.95;6.40;;;;;;;33.18;nan;101024.53;143725;647;46010;-69
2023/07/30 06:48:21;;;;;;;8.90;5.30;;;;;;;32.99;nan;101022.31;143724;576;46019;-70
2023/07/30 06:50:47;;;;;;;7.43;4.97;;;;;;;33.12;nan;101023.13;143724;675;46008;-69
2023/07/30 06:53:13;;;;;;;7.12;5.35;;;;;;;33.07;nan;101017.81;143727;572;47002;-69
2023/07/30 06:55:40;;;;;;;5.95;4.80;;;;;;;33.19;nan;101028.94;143726;572;47012;-69
2023/07/30 06:58:06;;;;;;;6.97;5.12;;;;;;;33.11;nan;101022.34;143723;609;47005;-70
2023/07/30 07:00:33;;;;;;;6.10;3.53;;;;;;;33.22;nan;101019.09;143725;572;46008;-70
2023/07/30 07:02:59;;;;;;;6.43;4.53;;;;;;;33.35;nan;101022.69;143727;593;47002;-69
2023/07/30 07:05:25;;;;;;;6.95;5.60;;;;;;;33.40;nan;101016.94;143724;582;46012;-70
2023/07/30 07:07:51;;;;;;;9.07;5.60;;;;;;;33.52;nan;101014.13;143724;584;47004;-70
2023/07/30 07:10:18;;;;;;;8.07;5.87;;;;;;;33.47;nan;101019.94;143722;583;46926;-69
2023/07/30 07:12:44;;;;;;;9.40;5.82;;;;;;;33.37;nan;101012.84;143725;567;47002;-69
2023/07/30 07:15:10;;;;;;;8.85;5.70;;;;;;;33.32;nan;101001.94;143728;568;46010;-70
2023/07/30 07:17:36;;;;;;;8.98;5.70;;;;;;;33.39;nan;101012.53;143725;596;47004;-69
2023/07/30 07:20:07;;;;;;;9.82;5.78;;;;;;;33.32;nan;101003.91;143724;603;47002;-70
2023/07/30 07:22:33;;;;;;;6.32;5.60;;;;;;;33.42;nan;101006.25;143724;637;47004;-69
2023/07/30 07:25:00;;;;;;;9.10;6.10;;;;;;;33.40;nan;101003.03;143727;590;46010;-68
2023/07/30 07:27:27;;;;;;;8.27;4.82;;;;;;;33.52;nan;100997.44;143724;594;47004;-68
2023/07/30 07:29:53;;;;;;;6.35;4.57;;;;;;;33.66;nan;101001.81;143725;615;47002;-69
2023/07/30 07:32:19;;;;;;;4.60;3.95;;;;;;;33.70;nan;101000.78;143725;637;47002;-69
2023/07/30 07:34:49;;;;;;;4.22;3.28;;;;;;;33.78;nan;101004.59;143724;624;46012;-69
2023/07/30 07:37:18;;;;;;;5.00;3.55;;;;;;;33.52;nan;101005.78;143724;614;47004;-70
2023/07/30 07:39:45;;;;;;;7.22;3.80;;;;;;;33.46;nan;101009.16;143726;566;46008;-69
2023/07/30 07:42:12;;;;;;;5.15;3.20;;;;;;;33.49;nan;101000.91;143727;608;46004;-70
2023/07/30 07:44:38;;;;;;;6.10;3.67;;;;;;;33.51;nan;101006.94;143723;619;47004;-70
2023/07/30 07:47:05;;;;;;;4.07;3.22;;;;;;;33.54;nan;101002.63;143722;585;47928;-69
2023/07/30 07:49:31;;;;;;;6.20;4.82;;;;;;;33.69;nan;100993.59;143724;580;46011;-68
2023/07/30 07:51:57;;;;;;;7.12;3.12;;;;;;;33.45;nan;100990.81;143726;705;46004;-69
2023/07/30 07:54:24;;;;;;;7.18;3.78;;;;;;;33.25;nan;101001.69;143725;576;46012;-68
2023/07/30 07:56:50;;;;;;;4.20;3.58;;;;;;;33.34;nan;100979.31;143723;592;46006;-69
2023/07/30 07:59:17;;;;;;;3.75;3.17;;;;;;;33.40;nan;100989.91;143723;568;46926;-69
2023/07/30 08:01:43;;;;;;;7.28;3.67;;;;;;;33.61;nan;100993.72;143728;582;47006;-69
2023/07/30 08:04:10;;;;;;;5.12;3.10;;;;;;;33.63;nan;100975.50;143727;593;46006;-69
2023/07/30 08:06:36;;;;;;;4.97;3.33;;;;;;;33.73;nan;100982.56;143722;569;47004;-69
2023/07/30 08:09:03;;;;;;;4.05;2.90;;;;;;;33.75;nan;100976.63;143726;591;46008;-69
2023/07/30 08:11:29;;;;;;;3.97;3.25;;;;;;;33.83;nan;100978.47;143725;598;47004;-69
2023/07/30 08:13:56;;;;;;;7.97;3.45;;;;;;;34.04;nan;100977.53;143723;617;47013;-69
2023/07/30 08:16:23;;;;;;;5.03;3.00;;;;;;;34.10;nan;100976.91;143723;593;47006;-69
2023/07/30 08:18:49;;;;;;;3.70;2.80;;;;;;;34.01;nan;100979.03;143727;648;46008;-68
2023/07/30 08:21:17;;;;;;;6.12;2.90;;;;;;;34.15;nan;100978.63;143725;589;47002;-69
2023/07/30 08:23:43;;;;;;;6.03;3.25;;;;;;;34.23;nan;100983.25;143723;568;47012;-69
2023/07/30 08:26:10;;;;;;;6.40;4.22;;;;;;;34.38;nan;100978.06;143727;581;46013;-68
2023/07/30 08:28:36;;;;;;;5.25;3.40;;;;;;;34.60;nan;100973.91;143724;589;47014;-70
2023/07/30 08:31:03;;;;;;;4.72;2.80;;;;;;;34.54;nan;100978.12;143725;582;47002;-69
2023/07/30 08:33:29;;;;;;;4.32;2.92;;;;;;;34.52;nan;100978.50;143725;579;46012;-69
2023/07/30 08:35:56;;;;;;;8.10;3.17;;;;;;;34.39;nan;100974.91;143722;572;47004;-68
2023/07/30 08:38:23;;;;;;;3.72;2.90;;;;;;;34.33;nan;100970.75;143726;578;46008;-69
2023/07/30 08:40:50;;;;;;;5.30;2.87;;;;;;;34.54;nan;100969.75;143725;595;46021;-69
2023/07/30 08:43:17;;;;;;;4.05;2.80;;;;;;;34.53;nan;100977.31;143724;604;46012;-70
2023/07/30 08:45:44;;;;;;;4.30;2.75;;;;;;;34.60;nan;100983.06;143725;589;46006;-68
2023/07/30 08:48:10;;;;;;;3.92;2.65;;;;;;;34.49;nan;100978.41;143725;637;46008;-70
2023/07/30 08:50:37;;;;;;;2.80;2.60;;;;;;;34.66;nan;100966.91;143726;607;47004;-70
2023/07/30 08:53:05;;;;;;;10.32;2.85;;;;;;;34.53;nan;100973.72;143725;593;46012;-69
2023/07/30 08:55:34;;;;;;;5.05;2.53;;;;;;;34.65;nan;100972.84;143720;612;47006;-69
2023/07/30 08:58:03;;;;;;;2.45;2.25;;;;;;;34.79;nan;100976.00;143720;647;47008;-69
2023/07/30 09:00:33;;;;;;;5.93;2.67;;;;;;;34.97;nan;100975.66;143727;586;46019;-69
2023/07/30 09:03:00;;;;;;;4.15;2.40;;;;;;;34.98;nan;100971.72;143727;590;46010;-71
2023/07/30 09:05:30;;;;;;;3.30;2.37;;;;;;;35.04;nan;100964.69;143721;591;47007;-69
2023/07/30 09:07:57;;;;;;;4.55;2.95;;;;;;;35.18;nan;100965.03;143723;640;47008;-70
2023/07/30 09:10:24;;;;;;;3.95;2.70;;;;;;;35.26;nan;100965.22;143722;831;47004;-69
2023/07/30 09:12:54;;;;;;;5.40;2.95;;;;;;;35.35;nan;100961.06;143722;633;47011;-69
2023/07/30 09:15:33;;;;;;;4.30;2.90;;;;;;;35.58;nan;100965.16;143724;641;46010;-69
2023/07/30 09:18:01;;;;;;;4.55;3.00;;;;;;;35.78;nan;100958.44;143726;590;46008;-68
2023/07/30 09:20:28;;;;;;;4.62;2.58;;;;;;;35.93;nan;100955.94;143724;568;47002;-69
2023/07/30 09:22:57;;;;;;;3.92;3.40;;;;;;;35.92;nan;100960.72;143727;622;46010;-70
2023/07/30 09:25:23;;;;;;;10.20;3.10;;;;;;;35.80;nan;100960.84;143725;776;46006;-69
2023/07/30 09:27:52;;;;;;;5.32;2.65;;;;;;;35.89;nan;100946.66;143724;626;46009;-69
2023/07/30 09:30:27;;;;;;;5.05;3.37;;;;;;;36.13;nan;100953.97;143727;592;47006;-70
2023/07/30 09:32:57;;;;;;;3.83;2.40;;;;;;;36.23;nan;100961.78;143726;573;46012;-69
2023/07/30 09:35:25;;;;;;;6.28;2.58;;;;;;;36.17;nan;100960.44;143725;649;46928;-68
2023/07/30 09:38:02;;;;;;;4.25;2.00;;;;;;;36.04;nan;100959.78;143726;656;46023;-68
2023/07/30 09:40:38;;;;;;;3.03;2.37;;;;;;;36.14;nan;100961.19;143727;572;46004;-69
2023/07/30 09:43:05;;;;;;;4.55;2.37;;;;;;;36.33;nan;100949.19;143724;638;47013;-69
2023/07/30 09:45:37;;;;;;;4.65;2.22;;;;;;;36.38;nan;100942.47;143722;583;47006;-69
2023/07/30 09:48:05;;;;;;;3.33;2.20;;;;;;;36.33;nan;100939.97;143724;613;46008;-69
2023/07/30 09:50:33;;;;;;;4.45;2.35;;;;;;;36.39;nan;100933.69;143725;636;47004;-69
2023/07/30 09:53:02;;;;;;;2.92;2.50;;;;;;;36.36;nan;100930.84;143723;564;46017;-69
2023/07/30 09:55:28;;;;;;;2.47;2.15;;;;;;;36.39;nan;100921.72;143720;620;47004;-68
2023/07/30 09:57:54;;;;;;;3.25;2.17;;;;;;;36.46;nan;100921.06;143725;592;46009;-69
2023/07/30 10:00:21;;;;;;;4.68;2.45;;;;;;;36.60;nan;100920.50;143724;719;47002;-70
2023/07/30 10:02:49;;;;;;;5.15;2.40;;;;;;;36.49;nan;100912.72;143725;566;46030;-68
2023/07/30 10:05:18;;;;;;;6.93;2.53;;;;;;;36.51;nan;100903.97;143724;634;47004;-70
2023/07/30 10:07:57;;;;;;;7.35;2.30;;;;;;;36.60;nan;100901.72;143718;649;49013;-71
2023/07/30 10:10:25;;;;;;;2.35;2.15;;;;;;;36.57;nan;100902.47;143725;601;47004;-70
2023/07/30 10:12:53;;;;;;;5.22;3.22;;;;;;;36.64;nan;100898.97;143727;712;47010;-69
2023/07/30 10:15:23;;;;;;;3.83;2.67;;;;;;;36.62;nan;100893.75;143723;585;47004;-69
2023/07/30 10:17:51;;;;;;;2.72;2.12;;;;;;;36.76;nan;100890.41;143727;598;46008;-70
2023/07/30 10:20:25;;;;;;;10.57;2.50;;;;;;;36.99;nan;100884.78;143726;607;46008;-69
2023/07/30 10:22:55;;;;;;;2.12;1.85;;;;;;;36.95;nan;100877.53;143724;597;47012;-69
2023/07/30 10:25:45;;;;;;;2.58;1.98;;;;;;;36.98;nan;100876.75;143725;579;46006;-69
2023/07/30 10:28:33;;;;;;;3.42;2.15;;;;;;;37.04;nan;100869.66;143726;616;46008;-69
2023/07/30 10:31:13;;;;;;;3.40;1.85;;;;;;;36.83;nan;100872.91;143728;584;46026;-69
2023/07/30 10:33:54;;;;;;;4.28;2.42;;;;;;;37.06;nan;100867.28;143727;660;46011;-69
2023/07/30 10:36:55;;;;;;;4.25;2.42;;;;;;;37.31;nan;100864.81;143727;590;47004;-68
2023/07/30 10:39:27;;;;;;;2.95;1.90;;;;;;;37.42;nan;100869.81;143726;569;46008;-69
2023/07/30 10:41:55;;;;;;;3.17;2.17;;;;;;;37.35;nan;100855.66;143726;605;47006;-69
2023/07/30 10:44:32;;;;;;;3.10;2.58;;;;;;;37.36;nan;100865.69;143724;679;47012;-69
2023/07/30 10:47:00;;;;;;;3.75;2.58;;;;;;;37.23;nan;100859.50;143727;578;47004;-70
2023/07/30 10:49:26;;;;;;;3.58;2.40;;;;;;;37.11;nan;100852.12;143727;575;46009;-69
2023/07/30 10:51:54;;;;;;;3.22;2.78;;;;;;;37.17;nan;100857.03;143726;598;46008;-69
2023/07/30 10:54:21;;;;;;;3.05;2.50;;;;;;;37.43;nan;100849.81;143726;640;46012;-69
2023/07/30 10:56:48;;;;;;;2.65;2.45;;;;;;;37.31;nan;100848.03;143724;622;47006;-69
2023/07/30 10:59:15;;;;;;;5.07;2.70;;;;;;;37.59;nan;100844.00;143725;596;46008;-69
2023/07/30 11:01:43;;;;;;;4.72;2.85;;;;;;;37.65;nan;100843.66;143724;696;47006;-69
2023/07/30 11:04:15;;;;;;;2.90;2.40;;;;;;;37.73;nan;100842.56;143725;567;47004;-69
2023/07/30 11:06:47;;;;;;;5.62;2.40;;;;;;;37.43;nan;100844.19;143726;611;46006;-70
2023/07/30 11:09:24;;;;;;;3.33;2.80;;;;;;;37.30;nan;100846.41;143724;663;46008;-69
2023/07/30 11:11:52;;;;;;;3.20;2.75;;;;;;;37.36;nan;100830.06;143726;593;46006;-70
2023/07/30 11:14:25;;;;;;;7.60;3.00;;;;;;;37.31;nan;100836.03;143725;578;46923;-70
2023/07/30 11:16:57;;;;;;;;;;;;;;;37.36;nan;100827.25;143729;980;46006;-68
2023/07/30 11:19:24;;;;;;;4.12;2.95;;;;;;;37.54;nan;100829.50;143731;636;47003;-70
2023/07/30 11:21:52;;;;;;;7.00;3.17;;;;;;;37.58;nan;100834.00;143728;596;47002;-71
2023/07/30 11:24:18;;;;;;;4.22;2.90;;;;;;;37.59;nan;100831.97;143726;586;46031;-71
2023/07/30 11:26:44;;;;;;;3.17;2.83;;;;;;;37.42;nan;100822.19;143724;606;47005;-70
2023/07/30 11:29:18;;;;;;;4.05;3.20;;;;;;;37.43;nan;100818.16;143730;604;46008;-70
2023/07/30 11:31:46;;;;;;;3.28;2.65;;;;;;;37.26;nan;100827.94;143726;574;47002;-70
2023/07/30 11:34:14;;;;;;;4.43;2.62;;;;;;;37.05;nan;100825.66;143725;613;47012;-70
2023/07/30 11:36:42;;;;;;;3.70;2.67;;;;;;;37.16;nan;100824.59;143725;630;46018;-71
2023/07/30 11:39:09;;;;;;;5.07;2.90;;;;;;;37.42;nan;100824.97;143727;611;46008;-71
2023/07/30 11:41:36;;;;;;;4.05;3.55;;;;;;;37.50;nan;100818.25;143726;612;47004;-71
2023/07/30 11:44:03;;;;;;;6.82;3.55;;;;;;;37.51;nan;100822.69;143726;575;46010;-69